sensor_id;sensor_type;location;lat;lon;timestamp;temperature;humidity
51579;DHT22;47998;53.242;6.386;2023-04-29T00:01:26;8.50;99.90
51579;DHT22;47998;53.242;6.386;2023-04-29T00:03:52;8.50;99.90
51579;DHT22;47998;53.242;6.386;2023-04-29T00:06:18;8.40;99.90
51579;DHT22;47998;53.242;6.386;2023-04-29T00:08:43;8.50;99.90
51579;DHT22;47998;53.242;6.386;2023-04-29T00:11:09;8.50;99.90
51579;DHT22;47998;53.242;6.386;2023-04-29T00:13:36;8.50;99.90
51579;DHT22;47998;53.242;6.386;2023-04-29T00:16:04;8.50;99.90
51579;DHT22;47998;53.242;6.386;2023-04-29T00:18:30;8.50;99.90
51579;DHT22;47998;53.242;6.386;2023-04-29T00:20:56;8.50;99.90
51579;DHT22;47998;53.242;6.386;2023-04-29T00:23:22;8.50;99.90
51579;DHT22;47998;53.242;6.386;2023-04-29T00:25:48;8.50;99.90
51579;DHT22;47998;53.242;6.386;2023-04-29T00:28:14;8.50;99.90
51579;DHT22;47998;53.242;6.386;2023-04-29T00:30:40;8.50;99.90
51579;DHT22;47998;53.242;6.386;2023-04-29T00:33:06;8.50;99.90
51579;DHT22;47998;53.242;6.386;2023-04-29T00:35:32;8.40;99.90
51579;DHT22;47998;53.242;6.386;2023-04-29T00:37:57;8.40;99.90
51579;DHT22;47998;53.242;6.386;2023-04-29T00:40:23;8.40;99.90
51579;DHT22;47998;53.242;6.386;2023-04-29T00:42:49;8.40;99.90
51579;DHT22;47998;53.242;6.386;2023-04-29T00:45:15;8.40;99.90
51579;DHT22;47998;53.242;6.386;2023-04-29T00:47:41;8.40;99.90
51579;DHT22;47998;53.242;6.386;2023-04-29T00:50:07;8.40;99.90
51579;DHT22;47998;53.242;6.386;2023-04-29T00:52:33;8.40;99.90
51579;DHT22;47998;53.242;6.386;2023-04-29T00:54:59;8.40;99.90
51579;DHT22;47998;53.242;6.386;2023-04-29T00:57:25;8.40;99.90
51579;DHT22;47998;53.242;6.386;2023-04-29T00:59:57;8.30;99.90
51579;DHT22;47998;53.242;6.386;2023-04-29T01:02:24;8.40;99.90
51579;DHT22;47998;53.242;6.386;2023-04-29T01:04:50;8.40;99.90
51579;DHT22;47998;53.242;6.386;2023-04-29T01:07:22;8.40;99.90
51579;DHT22;47998;53.242;6.386;2023-04-29T01:10:12;8.40;99.90
51579;DHT22;47998;53.242;6.386;2023-04-29T01:13:05;8.40;99.90
51579;DHT22;47998;53.242;6.386;2023-04-29T01:20:42;8.50;99.90
51579;DHT22;47998;53.242;6.386;2023-04-29T01:23:09;8.40;99.90
51579;DHT22;47998;53.242;6.386;2023-04-29T01:25:35;8.40;99.90
51579;DHT22;47998;53.242;6.386;2023-04-29T01:31:10;8.50;99.90
51579;DHT22;47998;53.242;6.386;2023-04-29T01:36:51;8.40;99.90
51579;DHT22;47998;53.242;6.386;2023-04-29T01:42:01;8.20;99.90
51579;DHT22;47998;53.242;6.386;2023-04-29T01:44:28;8.10;99.90
51579;DHT22;47998;53.242;6.386;2023-04-29T01:46:56;7.80;99.90
51579;DHT22;47998;53.242;6.386;2023-04-29T01:49:27;7.60;99.90
51579;DHT22;47998;53.242;6.386;2023-04-29T01:51:53;7.50;99.90
51579;DHT22;47998;53.242;6.386;2023-04-29T01:54:19;7.40;99.90
51579;DHT22;47998;53.242;6.386;2023-04-29T01:56:46;7.20;99.90
51579;DHT22;47998;53.242;6.386;2023-04-29T01:59:12;7.10;99.90
51579;DHT22;47998;53.242;6.386;2023-04-29T02:01:38;7.00;99.90
51579;DHT22;47998;53.242;6.386;2023-04-29T02:04:04;6.90;99.90
51579;DHT22;47998;53.242;6.386;2023-04-29T02:06:29;6.80;99.90
51579;DHT22;47998;53.242;6.386;2023-04-29T02:08:57;6.80;99.90
51579;DHT22;47998;53.242;6.386;2023-04-29T02:11:23;6.70;99.90
51579;DHT22;47998;53.242;6.386;2023-04-29T02:13:49;6.60;99.90
51579;DHT22;47998;53.242;6.386;2023-04-29T02:16:15;6.50;99.90
51579;DHT22;47998;53.242;6.386;2023-04-29T02:18:41;6.40;99.90
51579;DHT22;47998;53.242;6.386;2023-04-29T02:21:07;6.40;99.90
51579;DHT22;47998;53.242;6.386;2023-04-29T02:23:34;6.40;99.90
51579;DHT22;47998;53.242;6.386;2023-04-29T02:26:00;6.50;99.90
51579;DHT22;47998;53.242;6.386;2023-04-29T02:28:26;6.60;99.90
51579;DHT22;47998;53.242;6.386;2023-04-29T02:30:52;6.70;99.90
51579;DHT22;47998;53.242;6.386;2023-04-29T02:33:19;6.90;99.90
51579;DHT22;47998;53.242;6.386;2023-04-29T02:35:44;7.10;99.90
51579;DHT22;47998;53.242;6.386;2023-04-29T02:38:10;7.20;99.90
51579;DHT22;47998;53.242;6.386;2023-04-29T02:40:43;7.40;99.90
51579;DHT22;47998;53.242;6.386;2023-04-29T02:43:09;7.60;99.90
51579;DHT22;47998;53.242;6.386;2023-04-29T02:45:35;7.70;99.90
51579;DHT22;47998;53.242;6.386;2023-04-29T02:48:01;7.80;99.90
51579;DHT22;47998;53.242;6.386;2023-04-29T02:50:27;7.90;99.90
51579;DHT22;47998;53.242;6.386;2023-04-29T02:52:53;7.90;99.90
51579;DHT22;47998;53.242;6.386;2023-04-29T02:55:19;8.00;99.90
51579;DHT22;47998;53.242;6.386;2023-04-29T02:57:45;8.00;99.90
51579;DHT22;47998;53.242;6.386;2023-04-29T03:00:10;8.00;99.90
51579;DHT22;47998;53.242;6.386;2023-04-29T03:02:36;8.10;99.90
51579;DHT22;47998;53.242;6.386;2023-04-29T03:05:03;8.10;99.90
51579;DHT22;47998;53.242;6.386;2023-04-29T03:07:29;8.10;99.90
51579;DHT22;47998;53.242;6.386;2023-04-29T03:09:55;8.10;99.90
51579;DHT22;47998;53.242;6.386;2023-04-29T03:12:21;8.10;99.90
51579;DHT22;47998;53.242;6.386;2023-04-29T03:14:47;8.20;99.90
51579;DHT22;47998;53.242;6.386;2023-04-29T03:17:13;8.20;99.90
51579;DHT22;47998;53.242;6.386;2023-04-29T03:19:39;8.10;99.90
51579;DHT22;47998;53.242;6.386;2023-04-29T03:22:04;8.10;99.90
51579;DHT22;47998;53.242;6.386;2023-04-29T03:24:30;8.10;99.90
51579;DHT22;47998;53.242;6.386;2023-04-29T03:26:57;8.20;99.90
51579;DHT22;47998;53.242;6.386;2023-04-29T03:29:24;8.20;99.90
51579;DHT22;47998;53.242;6.386;2023-04-29T03:31:52;8.10;99.90
51579;DHT22;47998;53.242;6.386;2023-04-29T03:34:18;8.20;99.90
51579;DHT22;47998;53.242;6.386;2023-04-29T03:36:44;8.20;99.90
51579;DHT22;47998;53.242;6.386;2023-04-29T03:39:10;8.20;99.90
51579;DHT22;47998;53.242;6.386;2023-04-29T03:41:39;8.20;99.90
51579;DHT22;47998;53.242;6.386;2023-04-29T03:44:05;8.10;99.90
51579;DHT22;47998;53.242;6.386;2023-04-29T03:46:30;8.20;99.90
51579;DHT22;47998;53.242;6.386;2023-04-29T03:48:56;8.20;99.90
51579;DHT22;47998;53.242;6.386;2023-04-29T03:51:25;8.20;99.90
51579;DHT22;47998;53.242;6.386;2023-04-29T03:53:53;8.20;99.90
51579;DHT22;47998;53.242;6.386;2023-04-29T03:56:20;8.20;99.90
51579;DHT22;47998;53.242;6.386;2023-04-29T03:58:47;8.20;99.90
51579;DHT22;47998;53.242;6.386;2023-04-29T04:01:13;8.20;99.90
51579;DHT22;47998;53.242;6.386;2023-04-29T04:03:39;8.20;99.90
51579;DHT22;47998;53.242;6.386;2023-04-29T04:06:07;8.20;99.90
51579;DHT22;47998;53.242;6.386;2023-04-29T04:08:33;8.20;99.90
51579;DHT22;47998;53.242;6.386;2023-04-29T04:10:59;8.20;99.90
51579;DHT22;47998;53.242;6.386;2023-04-29T04:13:30;8.20;99.90
51579;DHT22;47998;53.242;6.386;2023-04-29T04:15:57;8.20;99.90
51579;DHT22;47998;53.242;6.386;2023-04-29T04:18:23;8.20;99.90
51579;DHT22;47998;53.242;6.386;2023-04-29T04:20:49;8.20;99.90
51579;DHT22;47998;53.242;6.386;2023-04-29T04:23:14;8.20;99.90
51579;DHT22;47998;53.242;6.386;2023-04-29T04:25:47;8.20;99.90
51579;DHT22;47998;53.242;6.386;2023-04-29T04:28:13;8.20;99.90
51579;DHT22;47998;53.242;6.386;2023-04-29T04:30:40;8.20;99.90
51579;DHT22;47998;53.242;6.386;2023-04-29T04:33:06;8.20;99.90
51579;DHT22;47998;53.242;6.386;2023-04-29T04:35:31;8.20;99.90
51579;DHT22;47998;53.242;6.386;2023-04-29T04:37:57;8.10;99.90
51579;DHT22;47998;53.242;6.386;2023-04-29T04:40:23;8.20;99.90
51579;DHT22;47998;53.242;6.386;2023-04-29T04:42:49;8.20;99.90
51579;DHT22;47998;53.242;6.386;2023-04-29T04:45:15;8.20;99.90
51579;DHT22;47998;53.242;6.386;2023-04-29T04:47:41;8.10;99.90
51579;DHT22;47998;53.242;6.386;2023-04-29T04:50:07;8.10;99.90
51579;DHT22;47998;53.242;6.386;2023-04-29T04:52:34;8.20;99.90
51579;DHT22;47998;53.242;6.386;2023-04-29T04:54:59;8.20;99.90
51579;DHT22;47998;53.242;6.386;2023-04-29T04:57:26;8.20;99.90
51579;DHT22;47998;53.242;6.386;2023-04-29T04:59:52;8.20;99.90
51579;DHT22;47998;53.242;6.386;2023-04-29T05:02:17;8.20;99.90
51579;DHT22;47998;53.242;6.386;2023-04-29T05:04:43;8.20;99.90
51579;DHT22;47998;53.242;6.386;2023-04-29T05:07:09;8.20;99.90
51579;DHT22;47998;53.242;6.386;2023-04-29T05:09:35;8.30;99.90
51579;DHT22;47998;53.242;6.386;2023-04-29T05:12:01;8.30;99.90
51579;DHT22;47998;53.242;6.386;2023-04-29T05:14:27;8.30;99.90
51579;DHT22;47998;53.242;6.386;2023-04-29T05:16:57;8.40;99.90
51579;DHT22;47998;53.242;6.386;2023-04-29T05:19:23;8.40;99.90
51579;DHT22;47998;53.242;6.386;2023-04-29T05:21:49;8.40;99.90
51579;DHT22;47998;53.242;6.386;2023-04-29T05:24:15;8.50;99.90
51579;DHT22;47998;53.242;6.386;2023-04-29T05:26:40;8.50;99.90
51579;DHT22;47998;53.242;6.386;2023-04-29T05:29:09;8.60;99.90
51579;DHT22;47998;53.242;6.386;2023-04-29T05:31:35;8.70;99.90
51579;DHT22;47998;53.242;6.386;2023-04-29T05:34:01;8.70;99.90
51579;DHT22;47998;53.242;6.386;2023-04-29T05:36:27;8.80;99.90
51579;DHT22;47998;53.242;6.386;2023-04-29T05:38:53;8.90;99.90
51579;DHT22;47998;53.242;6.386;2023-04-29T05:41:19;9.00;99.90
51579;DHT22;47998;53.242;6.386;2023-04-29T05:43:45;9.00;99.90
51579;DHT22;47998;53.242;6.386;2023-04-29T05:46:11;9.00;99.90
51579;DHT22;47998;53.242;6.386;2023-04-29T05:48:37;9.00;99.90
51579;DHT22;47998;53.242;6.386;2023-04-29T05:51:03;8.90;99.90
51579;DHT22;47998;53.242;6.386;2023-04-29T05:53:29;8.80;99.90
51579;DHT22;47998;53.242;6.386;2023-04-29T05:55:55;8.70;99.90
51579;DHT22;47998;53.242;6.386;2023-04-29T05:58:21;8.60;99.90
51579;DHT22;47998;53.242;6.386;2023-04-29T06:00:47;8.60;99.90
51579;DHT22;47998;53.242;6.386;2023-04-29T06:03:14;8.70;99.90
51579;DHT22;47998;53.242;6.386;2023-04-29T06:05:39;8.70;99.90
51579;DHT22;47998;53.242;6.386;2023-04-29T06:08:06;8.70;99.90
51579;DHT22;47998;53.242;6.386;2023-04-29T06:10:31;8.90;99.90
51579;DHT22;47998;53.242;6.386;2023-04-29T06:12:58;9.00;99.90
51579;DHT22;47998;53.242;6.386;2023-04-29T06:15:24;9.00;99.90
51579;DHT22;47998;53.242;6.386;2023-04-29T06:17:50;9.10;99.90
51579;DHT22;47998;53.242;6.386;2023-04-29T06:20:16;9.10;99.90
51579;DHT22;47998;53.242;6.386;2023-04-29T06:22:42;9.20;99.90
51579;DHT22;47998;53.242;6.386;2023-04-29T06:25:08;9.30;99.90
51579;DHT22;47998;53.242;6.386;2023-04-29T06:27:33;9.30;99.90
51579;DHT22;47998;53.242;6.386;2023-04-29T06:29:59;9.40;99.90
51579;DHT22;47998;53.242;6.386;2023-04-29T06:32:25;9.40;99.90
51579;DHT22;47998;53.242;6.386;2023-04-29T06:34:51;9.50;99.90
51579;DHT22;47998;53.242;6.386;2023-04-29T06:37:16;9.50;99.90
51579;DHT22;47998;53.242;6.386;2023-04-29T06:39:42;9.60;99.90
51579;DHT22;47998;53.242;6.386;2023-04-29T06:42:08;9.70;99.90
51579;DHT22;47998;53.242;6.386;2023-04-29T06:44:34;9.70;99.90
51579;DHT22;47998;53.242;6.386;2023-04-29T06:47:00;9.70;99.90
51579;DHT22;47998;53.242;6.386;2023-04-29T06:49:26;9.80;99.90
51579;DHT22;47998;53.242;6.386;2023-04-29T06:51:51;9.80;99.90
51579;DHT22;47998;53.242;6.386;2023-04-29T06:54:17;9.90;99.90
51579;DHT22;47998;53.242;6.386;2023-04-29T06:56:43;9.90;99.90
51579;DHT22;47998;53.242;6.386;2023-04-29T06:59:09;10.00;99.90
51579;DHT22;47998;53.242;6.386;2023-04-29T07:01:37;10.10;99.90
51579;DHT22;47998;53.242;6.386;2023-04-29T07:04:03;10.10;99.90
51579;DHT22;47998;53.242;6.386;2023-04-29T07:06:29;10.20;99.90
51579;DHT22;47998;53.242;6.386;2023-04-29T07:08:55;10.20;99.90
51579;DHT22;47998;53.242;6.386;2023-04-29T07:11:21;10.20;99.90
51579;DHT22;47998;53.242;6.386;2023-04-29T07:13:51;10.20;99.90
51579;DHT22;47998;53.242;6.386;2023-04-29T07:16:18;10.30;99.90
51579;DHT22;47998;53.242;6.386;2023-04-29T07:18:46;10.40;99.90
51579;DHT22;47998;53.242;6.386;2023-04-29T07:21:11;10.40;99.90
51579;DHT22;47998;53.242;6.386;2023-04-29T07:23:37;10.50;99.90
51579;DHT22;47998;53.242;6.386;2023-04-29T07:26:13;10.50;99.90
51579;DHT22;47998;53.242;6.386;2023-04-29T07:28:40;10.70;99.90
51579;DHT22;47998;53.242;6.386;2023-04-29T07:31:07;10.70;99.90
51579;DHT22;47998;53.242;6.386;2023-04-29T07:33:34;10.70;99.90
51579;DHT22;47998;53.242;6.386;2023-04-29T07:36:00;10.80;99.90
51579;DHT22;47998;53.242;6.386;2023-04-29T07:38:26;10.80;99.90
51579;DHT22;47998;53.242;6.386;2023-04-29T07:40:54;10.80;99.90
51579;DHT22;47998;53.242;6.386;2023-04-29T07:43:20;10.80;99.90
51579;DHT22;47998;53.242;6.386;2023-04-29T07:45:46;10.90;99.90
51579;DHT22;47998;53.242;6.386;2023-04-29T07:48:12;11.00;99.90
51579;DHT22;47998;53.242;6.386;2023-04-29T07:50:38;11.00;99.90
51579;DHT22;47998;53.242;6.386;2023-04-29T07:53:04;11.00;99.90
51579;DHT22;47998;53.242;6.386;2023-04-29T07:55:30;11.10;99.90
51579;DHT22;47998;53.242;6.386;2023-04-29T07:57:57;11.10;99.90
51579;DHT22;47998;53.242;6.386;2023-04-29T08:00:23;11.20;99.90
51579;DHT22;47998;53.242;6.386;2023-04-29T08:02:53;11.30;99.90
51579;DHT22;47998;53.242;6.386;2023-04-29T08:05:20;11.30;99.90
51579;DHT22;47998;53.242;6.386;2023-04-29T08:07:46;11.30;1.00
51579;DHT22;47998;53.242;6.386;2023-04-29T08:10:13;11.40;99.90
51579;DHT22;47998;53.242;6.386;2023-04-29T08:12:39;11.30;61.00
51579;DHT22;47998;53.242;6.386;2023-04-29T08:15:06;11.30;1.00
51579;DHT22;47998;53.242;6.386;2023-04-29T08:17:32;11.40;1.00
51579;DHT22;47998;53.242;6.386;2023-04-29T08:19:57;11.40;1.00
51579;DHT22;47998;53.242;6.386;2023-04-29T08:22:23;11.50;1.00
51579;DHT22;47998;53.242;6.386;2023-04-29T08:24:49;11.60;1.00
51579;DHT22;47998;53.242;6.386;2023-04-29T08:27:15;11.70;1.00
51579;DHT22;47998;53.242;6.386;2023-04-29T08:29:41;11.70;1.00
51579;DHT22;47998;53.242;6.386;2023-04-29T08:32:07;11.80;99.90
51579;DHT22;47998;53.242;6.386;2023-04-29T08:34:33;11.80;99.90
51579;DHT22;47998;53.242;6.386;2023-04-29T08:37:02;11.80;1.00
51579;DHT22;47998;53.242;6.386;2023-04-29T08:39:28;11.90;1.00
51579;DHT22;47998;53.242;6.386;2023-04-29T08:41:57;11.90;31.60
51579;DHT22;47998;53.242;6.386;2023-04-29T08:44:25;12.00;1.00
51579;DHT22;47998;53.242;6.386;2023-04-29T08:46:52;12.00;1.00
51579;DHT22;47998;53.242;6.386;2023-04-29T08:49:17;12.10;1.00
51579;DHT22;47998;53.242;6.386;2023-04-29T08:51:43;12.10;76.10
51579;DHT22;47998;53.242;6.386;2023-04-29T08:54:10;12.20;99.90
51579;DHT22;47998;53.242;6.386;2023-04-29T08:56:36;12.30;99.90
51579;DHT22;47998;53.242;6.386;2023-04-29T08:59:03;13.00;99.90
51579;DHT22;47998;53.242;6.386;2023-04-29T09:01:35;13.40;99.90
51579;DHT22;47998;53.242;6.386;2023-04-29T09:04:14;14.50;1.00
51579;DHT22;47998;53.242;6.386;2023-04-29T09:06:44;15.20;99.10
51579;DHT22;47998;53.242;6.386;2023-04-29T09:09:11;15.60;1.00
51579;DHT22;47998;53.242;6.386;2023-04-29T09:11:39;16.30;1.00
51579;DHT22;47998;53.242;6.386;2023-04-29T09:14:04;16.40;99.90
51579;DHT22;47998;53.242;6.386;2023-04-29T09:16:30;16.50;99.90
51579;DHT22;47998;53.242;6.386;2023-04-29T09:18:56;16.90;99.90
51579;DHT22;47998;53.242;6.386;2023-04-29T09:21:27;16.60;99.90
51579;DHT22;47998;53.242;6.386;2023-04-29T09:23:57;16.80;1.00
51579;DHT22;47998;53.242;6.386;2023-04-29T09:26:24;17.00;1.00
51579;DHT22;47998;53.242;6.386;2023-04-29T09:29:10;17.50;99.90
51579;DHT22;47998;53.242;6.386;2023-04-29T09:31:38;17.30;99.90
51579;DHT22;47998;53.242;6.386;2023-04-29T09:34:04;16.90;1.00
51579;DHT22;47998;53.242;6.386;2023-04-29T09:39:16;17.00;1.00
51579;DHT22;47998;53.242;6.386;2023-04-29T09:41:56;17.10;99.90
51579;DHT22;47998;53.242;6.386;2023-04-29T09:44:28;16.80;99.90
51579;DHT22;47998;53.242;6.386;2023-04-29T09:46:56;17.00;99.90
51579;DHT22;47998;53.242;6.386;2023-04-29T09:49:24;17.00;99.90
51579;DHT22;47998;53.242;6.386;2023-04-29T09:51:55;17.10;1.00
51579;DHT22;47998;53.242;6.386;2023-04-29T09:54:31;17.20;1.00
51579;DHT22;47998;53.242;6.386;2023-04-29T09:56:59;17.50;99.90
51579;DHT22;47998;53.242;6.386;2023-04-29T09:59:27;17.40;99.90
51579;DHT22;47998;53.242;6.386;2023-04-29T10:01:57;17.80;1.00
51579;DHT22;47998;53.242;6.386;2023-04-29T10:04:24;18.10;1.00
51579;DHT22;47998;53.242;6.386;2023-04-29T10:06:54;18.00;99.90
51579;DHT22;47998;53.242;6.386;2023-04-29T10:09:21;18.20;99.90
51579;DHT22;47998;53.242;6.386;2023-04-29T10:11:49;18.30;99.90
51579;DHT22;47998;53.242;6.386;2023-04-29T10:14:17;17.80;1.00
51579;DHT22;47998;53.242;6.386;2023-04-29T10:17:02;17.80;99.90
51579;DHT22;47998;53.242;6.386;2023-04-29T10:19:36;17.90;99.90
51579;DHT22;47998;53.242;6.386;2023-04-29T10:22:08;18.50;1.00
51579;DHT22;47998;53.242;6.386;2023-04-29T10:24:36;18.30;99.90
51579;DHT22;47998;53.242;6.386;2023-04-29T10:27:05;18.50;99.90
51579;DHT22;47998;53.242;6.386;2023-04-29T10:29:33;18.30;99.90
51579;DHT22;47998;53.242;6.386;2023-04-29T10:32:00;18.20;1.00
51579;DHT22;47998;53.242;6.386;2023-04-29T10:34:26;17.60;1.00
51579;DHT22;47998;53.242;6.386;2023-04-29T10:36:52;17.50;1.00
51579;DHT22;47998;53.242;6.386;2023-04-29T10:39:26;17.40;1.00
51579;DHT22;47998;53.242;6.386;2023-04-29T10:41:55;17.70;1.00
51579;DHT22;47998;53.242;6.386;2023-04-29T10:44:21;18.60;6.70
51579;DHT22;47998;53.242;6.386;2023-04-29T10:46:48;19.00;1.00
51579;DHT22;47998;53.242;6.386;2023-04-29T10:49:14;18.90;1.00
51579;DHT22;47998;53.242;6.386;2023-04-29T10:51:42;18.20;1.00
51579;DHT22;47998;53.242;6.386;2023-04-29T10:54:13;17.70;1.00
51579;DHT22;47998;53.242;6.386;2023-04-29T10:56:52;17.70;1.00
51579;DHT22;47998;53.242;6.386;2023-04-29T11:01:53;18.30;1.00
51579;DHT22;47998;53.242;6.386;2023-04-29T11:04:21;18.40;1.00
51579;DHT22;47998;53.242;6.386;2023-04-29T11:06:51;17.80;1.00
51579;DHT22;47998;53.242;6.386;2023-04-29T11:09:28;18.00;1.00
51579;DHT22;47998;53.242;6.386;2023-04-29T11:12:04;18.50;1.00
51579;DHT22;47998;53.242;6.386;2023-04-29T11:14:40;18.80;1.00
51579;DHT22;47998;53.242;6.386;2023-04-29T11:17:14;18.90;1.00
51579;DHT22;47998;53.242;6.386;2023-04-29T11:19:49;19.10;1.00
51579;DHT22;47998;53.242;6.386;2023-04-29T11:24:55;18.30;1.00
51579;DHT22;47998;53.242;6.386;2023-04-29T11:27:24;17.70;1.00
51579;DHT22;47998;53.242;6.386;2023-04-29T11:29:51;17.20;1.00
51579;DHT22;47998;53.242;6.386;2023-04-29T11:32:20;16.90;1.00
51579;DHT22;47998;53.242;6.386;2023-04-29T11:34:47;17.00;1.00
51579;DHT22;47998;53.242;6.386;2023-04-29T11:37:22;16.80;1.00
51579;DHT22;47998;53.242;6.386;2023-04-29T11:39:48;17.00;1.00
51579;DHT22;47998;53.242;6.386;2023-04-29T11:42:19;16.90;1.00
51579;DHT22;47998;53.242;6.386;2023-04-29T11:44:45;16.60;1.00
51579;DHT22;47998;53.242;6.386;2023-04-29T11:47:11;17.10;1.00
51579;DHT22;47998;53.242;6.386;2023-04-29T11:49:37;17.20;1.00
51579;DHT22;47998;53.242;6.386;2023-04-29T11:52:03;17.50;1.00
51579;DHT22;47998;53.242;6.386;2023-04-29T11:54:29;17.70;1.00
51579;DHT22;47998;53.242;6.386;2023-04-29T11:56:58;18.10;1.00
51579;DHT22;47998;53.242;6.386;2023-04-29T11:59:27;18.20;1.00
51579;DHT22;47998;53.242;6.386;2023-04-29T12:01:53;18.70;1.00
51579;DHT22;47998;53.242;6.386;2023-04-29T12:04:19;17.60;99.90
51579;DHT22;47998;53.242;6.386;2023-04-29T12:06:45;16.70;99.90
51579;DHT22;47998;53.242;6.386;2023-04-29T12:09:11;17.00;1.00
51579;DHT22;47998;53.242;6.386;2023-04-29T12:11:37;16.80;1.00
51579;DHT22;47998;53.242;6.386;2023-04-29T12:14:03;17.20;1.00
51579;DHT22;47998;53.242;6.386;2023-04-29T12:16:34;17.90;1.00
51579;DHT22;47998;53.242;6.386;2023-04-29T12:19:01;18.40;1.00
51579;DHT22;47998;53.242;6.386;2023-04-29T12:21:27;18.50;1.00
51579;DHT22;47998;53.242;6.386;2023-04-29T12:23:53;18.80;1.00
51579;DHT22;47998;53.242;6.386;2023-04-29T12:26:19;18.80;99.90
51579;DHT22;47998;53.242;6.386;2023-04-29T12:28:52;18.80;99.90
51579;DHT22;47998;53.242;6.386;2023-04-29T12:31:18;18.80;99.90
51579;DHT22;47998;53.242;6.386;2023-04-29T12:33:43;18.60;99.90
51579;DHT22;47998;53.242;6.386;2023-04-29T12:36:16;18.50;99.90
51579;DHT22;47998;53.242;6.386;2023-04-29T12:38:42;18.00;99.90
51579;DHT22;47998;53.242;6.386;2023-04-29T12:41:08;17.80;99.90
51579;DHT22;47998;53.242;6.386;2023-04-29T12:43:36;18.40;99.90
51579;DHT22;47998;53.242;6.386;2023-04-29T12:46:09;18.20;99.90
51579;DHT22;47998;53.242;6.386;2023-04-29T12:48:37;17.90;99.90
51579;DHT22;47998;53.242;6.386;2023-04-29T12:51:08;17.90;1.00
51579;DHT22;47998;53.242;6.386;2023-04-29T12:53:34;18.00;99.90
51579;DHT22;47998;53.242;6.386;2023-04-29T12:56:00;17.80;99.90
51579;DHT22;47998;53.242;6.386;2023-04-29T12:58:29;18.10;1.00
51579;DHT22;47998;53.242;6.386;2023-04-29T13:00:56;18.40;1.00
51579;DHT22;47998;53.242;6.386;2023-04-29T13:03:22;18.40;1.00
51579;DHT22;47998;53.242;6.386;2023-04-29T13:05:48;18.60;1.00
51579;DHT22;47998;53.242;6.386;2023-04-29T13:08:17;18.70;1.00
51579;DHT22;47998;53.242;6.386;2023-04-29T13:10:43;18.70;1.00
51579;DHT22;47998;53.242;6.386;2023-04-29T13:13:09;18.70;1.00
51579;DHT22;47998;53.242;6.386;2023-04-29T13:15:35;18.10;1.00
51579;DHT22;47998;53.242;6.386;2023-04-29T13:18:01;18.10;1.00
51579;DHT22;47998;53.242;6.386;2023-04-29T13:20:27;18.40;67.80
51579;DHT22;47998;53.242;6.386;2023-04-29T13:22:53;18.50;62.70
51579;DHT22;47998;53.242;6.386;2023-04-29T13:25:19;18.30;55.00
51579;DHT22;47998;53.242;6.386;2023-04-29T13:27:45;18.30;1.00
51579;DHT22;47998;53.242;6.386;2023-04-29T13:30:11;18.00;1.00
51579;DHT22;47998;53.242;6.386;2023-04-29T13:32:36;18.10;1.00
51579;DHT22;47998;53.242;6.386;2023-04-29T13:35:06;17.40;1.00
51579;DHT22;47998;53.242;6.386;2023-04-29T13:37:31;17.20;1.00
51579;DHT22;47998;53.242;6.386;2023-04-29T13:39:57;16.30;1.00
51579;DHT22;47998;53.242;6.386;2023-04-29T13:42:23;16.10;99.90
51579;DHT22;47998;53.242;6.386;2023-04-29T13:44:48;15.70;99.90
51579;DHT22;47998;53.242;6.386;2023-04-29T13:47:15;15.70;99.90
51579;DHT22;47998;53.242;6.386;2023-04-29T13:49:42;16.00;99.90
51579;DHT22;47998;53.242;6.386;2023-04-29T13:52:11;16.20;99.90
51579;DHT22;47998;53.242;6.386;2023-04-29T13:54:38;16.10;99.90
51579;DHT22;47998;53.242;6.386;2023-04-29T13:57:04;16.30;99.90
51579;DHT22;47998;53.242;6.386;2023-04-29T13:59:34;16.30;99.90
51579;DHT22;47998;53.242;6.386;2023-04-29T14:02:00;16.50;99.90
51579;DHT22;47998;53.242;6.386;2023-04-29T14:04:27;16.40;99.90
51579;DHT22;47998;53.242;6.386;2023-04-29T14:06:53;16.40;99.90
51579;DHT22;47998;53.242;6.386;2023-04-29T14:09:19;16.50;99.90
51579;DHT22;47998;53.242;6.386;2023-04-29T14:11:46;16.40;1.00
51579;DHT22;47998;53.242;6.386;2023-04-29T14:14:12;16.60;1.00
51579;DHT22;47998;53.242;6.386;2023-04-29T14:16:38;16.40;1.00
51579;DHT22;47998;53.242;6.386;2023-04-29T14:19:04;16.40;1.00
51579;DHT22;47998;53.242;6.386;2023-04-29T14:21:30;16.00;1.00
51579;DHT22;47998;53.242;6.386;2023-04-29T14:23:58;16.00;9.10
51579;DHT22;47998;53.242;6.386;2023-04-29T14:26:24;15.90;1.00
51579;DHT22;47998;53.242;6.386;2023-04-29T14:28:51;15.90;1.00
51579;DHT22;47998;53.242;6.386;2023-04-29T14:31:27;16.00;1.00
51579;DHT22;47998;53.242;6.386;2023-04-29T14:33:57;16.00;1.00
51579;DHT22;47998;53.242;6.386;2023-04-29T14:36:23;15.70;1.00
51579;DHT22;47998;53.242;6.386;2023-04-29T14:38:49;16.10;1.00
51579;DHT22;47998;53.242;6.386;2023-04-29T14:41:15;16.20;99.90
51579;DHT22;47998;53.242;6.386;2023-04-29T14:43:41;16.70;1.00
51579;DHT22;47998;53.242;6.386;2023-04-29T14:46:07;16.90;1.00
51579;DHT22;47998;53.242;6.386;2023-04-29T14:48:33;16.30;1.00
51579;DHT22;47998;53.242;6.386;2023-04-29T14:50:59;16.10;1.00
51579;DHT22;47998;53.242;6.386;2023-04-29T14:53:25;16.10;1.00
51579;DHT22;47998;53.242;6.386;2023-04-29T14:55:51;16.10;9.00
51579;DHT22;47998;53.242;6.386;2023-04-29T14:58:17;16.30;1.00
51579;DHT22;47998;53.242;6.386;2023-04-29T15:00:43;16.50;1.00
51579;DHT22;47998;53.242;6.386;2023-04-29T15:03:08;16.20;1.00
51579;DHT22;47998;53.242;6.386;2023-04-29T15:05:34;16.40;1.00
51579;DHT22;47998;53.242;6.386;2023-04-29T15:08:01;16.50;1.00
51579;DHT22;47998;53.242;6.386;2023-04-29T15:10:30;16.30;1.00
51579;DHT22;47998;53.242;6.386;2023-04-29T15:12:56;16.80;1.00
51579;DHT22;47998;53.242;6.386;2023-04-29T15:15:22;17.20;90.20
51579;DHT22;47998;53.242;6.386;2023-04-29T15:17:48;16.70;1.00
51579;DHT22;47998;53.242;6.386;2023-04-29T15:20:14;17.00;1.00
51579;DHT22;47998;53.242;6.386;2023-04-29T15:22:40;16.30;1.00
51579;DHT22;47998;53.242;6.386;2023-04-29T15:25:07;15.90;1.00
51579;DHT22;47998;53.242;6.386;2023-04-29T15:27:34;15.50;1.00
51579;DHT22;47998;53.242;6.386;2023-04-29T15:30:01;15.30;99.90
51579;DHT22;47998;53.242;6.386;2023-04-29T15:32:28;14.90;99.90
51579;DHT22;47998;53.242;6.386;2023-04-29T15:34:58;14.80;99.90
51579;DHT22;47998;53.242;6.386;2023-04-29T15:37:24;14.30;99.90
51579;DHT22;47998;53.242;6.386;2023-04-29T15:39:51;14.30;99.90
51579;DHT22;47998;53.242;6.386;2023-04-29T15:42:16;14.20;99.90
51579;DHT22;47998;53.242;6.386;2023-04-29T15:44:42;13.80;1.00
51579;DHT22;47998;53.242;6.386;2023-04-29T15:47:08;13.50;1.00
51579;DHT22;47998;53.242;6.386;2023-04-29T15:49:33;13.50;1.00
51579;DHT22;47998;53.242;6.386;2023-04-29T15:51:59;13.50;26.90
51579;DHT22;47998;53.242;6.386;2023-04-29T15:54:25;13.40;99.90
51579;DHT22;47998;53.242;6.386;2023-04-29T15:56:51;13.30;99.90
51579;DHT22;47998;53.242;6.386;2023-04-29T15:59:17;13.20;99.90
51579;DHT22;47998;53.242;6.386;2023-04-29T16:01:42;13.00;99.90
51579;DHT22;47998;53.242;6.386;2023-04-29T16:04:08;12.90;1.00